createdAt,value
2023-04-27T00:00:13.339Z,100361.13
2023-04-27T00:02:41.841Z,100360.25
2023-04-27T00:05:11.109Z,100360.25
2023-04-27T00:07:38.801Z,100353.13
2023-04-27T00:10:09.318Z,100344.63
2023-04-27T00:12:36.945Z,100350.16
2023-04-27T00:15:05.034Z,100357.34
2023-04-27T00:17:32.677Z,100343.69
2023-04-27T00:20:00.540Z,100348.34
2023-04-27T00:22:28.191Z,100342.13
2023-04-27T00:24:55.880Z,100337.00
2023-04-27T00:27:28.581Z,100334.88
2023-04-27T00:29:56.462Z,100330.03
2023-04-27T00:32:24.145Z,100333.88
2023-04-27T00:34:51.756Z,100327.34
2023-04-27T00:37:19.571Z,100334.88
2023-04-27T00:39:47.232Z,100333.03
2023-04-27T00:42:17.290Z,100333.53
2023-04-27T00:44:46.650Z,100325.03
2023-04-27T00:47:14.467Z,100338.19
2023-04-27T00:49:42.287Z,100332.56
2023-04-27T00:52:09.995Z,100330.44
2023-04-27T00:54:37.811Z,100333.06
2023-04-27T00:57:05.417Z,100332.41
2023-04-27T00:59:33.136Z,100336.91
2023-04-27T01:02:02.908Z,100343.78
2023-04-27T01:04:32.545Z,100343.09
2023-04-27T01:07:02.474Z,100346.13
2023-04-27T01:09:30.191Z,100344.94
2023-04-27T01:11:58.568Z,100352.59
2023-04-27T01:14:26.299Z,100346.59
2023-04-27T01:16:53.896Z,100352.44
2023-04-27T01:19:23.447Z,100342.44
2023-04-27T01:21:51.014Z,100355.28
2023-04-27T01:24:20.053Z,100350.44
2023-04-27T01:26:47.845Z,100349.09
2023-04-27T01:29:15.672Z,100352.78
2023-04-27T01:31:43.448Z,100353.13
2023-04-27T01:34:11.793Z,100347.44
2023-04-27T01:36:39.546Z,100356.09
2023-04-27T01:39:09.335Z,100348.97
2023-04-27T01:41:38.428Z,100351.44
2023-04-27T01:44:06.572Z,100353.44
2023-04-27T01:46:34.430Z,100356.94
2023-04-27T01:49:02.038Z,100364.97
2023-04-27T01:51:29.659Z,100369.78
2023-04-27T01:53:57.408Z,100367.44
2023-04-27T01:56:25.079Z,100371.59
2023-04-27T01:58:55.289Z,100379.28
2023-04-27T02:01:22.907Z,100381.28
2023-04-27T02:03:50.784Z,100377.13
2023-04-27T02:06:18.645Z,100386.28
2023-04-27T02:08:46.244Z,100386.44
2023-04-27T02:11:13.822Z,100393.28
2023-04-27T02:13:41.481Z,100385.81
2023-04-27T02:16:10.544Z,100378.28
2023-04-27T02:18:38.356Z,100377.97
2023-04-27T02:21:09.621Z,100378.78
2023-04-27T02:23:37.310Z,100381.09
2023-04-27T02:26:04.898Z,100372.94
2023-04-27T02:28:32.947Z,100371.91
2023-04-27T02:31:01.378Z,100381.25
2023-04-27T02:33:30.699Z,100384.72
2023-04-27T02:35:58.291Z,100391.44
2023-04-27T02:38:25.988Z,100388.75
2023-04-27T02:40:54.894Z,100384.09
2023-04-27T02:43:22.604Z,100384.78
2023-04-27T02:45:50.488Z,100391.91
2023-04-27T02:48:18.155Z,100395.75
2023-04-27T02:50:47.169Z,100398.09
2023-04-27T02:53:15.443Z,100392.25
2023-04-27T02:55:47.326Z,100391.09
2023-04-27T02:58:14.860Z,100393.88
2023-04-27T03:00:42.479Z,100391.34
2023-04-27T03:03:10.550Z,100380.56
2023-04-27T03:05:38.513Z,100376.72
2023-04-27T03:08:07.488Z,100377.56
2023-04-27T03:10:35.048Z,100385.53
2023-04-27T03:13:02.960Z,100373.66
2023-04-27T03:15:30.614Z,100375.53
2023-04-27T03:17:58.475Z,100374.22
2023-04-27T03:20:26.292Z,100377.06
2023-04-27T03:22:53.801Z,100377.22
2023-04-27T03:25:22.816Z,100368.88
2023-04-27T03:27:50.783Z,100367.91
2023-04-27T03:30:18.438Z,100377.56
2023-04-27T03:32:47.755Z,100374.06
2023-04-27T03:35:15.885Z,100379.25
2023-04-27T03:37:45.850Z,100366.19
2023-04-27T03:40:15.206Z,100366.53
2023-04-27T03:42:44.284Z,100357.72
2023-04-27T03:45:12.360Z,100354.34
2023-04-27T03:47:40.252Z,100359.84
2023-04-27T03:50:08.243Z,100351.53
2023-04-27T03:52:35.814Z,100355.50
2023-04-27T03:55:03.471Z,100363.41
2023-04-27T03:57:31.119Z,100362.69
2023-04-27T04:00:00.059Z,100368.19
2023-04-27T04:02:28.058Z,100368.88
2023-04-27T04:04:55.844Z,100372.16
2023-04-27T04:07:23.853Z,100380.84
2023-04-27T04:09:51.481Z,100384.84
2023-04-27T04:12:19.022Z,100387.88
2023-04-27T04:14:48.846Z,100393.69
2023-04-27T04:17:18.131Z,100387.03
2023-04-27T04:19:45.679Z,100393.38
2023-04-27T04:22:14.202Z,100380.06
2023-04-27T04:24:42.020Z,100390.56
2023-04-27T04:27:09.654Z,100394.72
2023-04-27T04:29:38.825Z,100384.88
2023-04-27T04:32:07.327Z,100388.75
2023-04-27T04:34:36.744Z,100391.00
2023-04-27T04:37:04.513Z,100395.53
2023-04-27T04:39:33.170Z,100392.28
2023-04-27T04:42:00.851Z,100398.75
2023-04-27T04:44:28.493Z,100390.38
2023-04-27T04:46:56.203Z,100402.38
2023-04-27T04:49:24.050Z,100400.69
2023-04-27T04:51:53.071Z,100404.50
2023-04-27T04:54:20.696Z,100400.69
2023-04-27T04:56:49.311Z,100397.38
2023-04-27T04:59:17.576Z,100405.75
2023-04-27T05:01:45.160Z,100416.97
2023-04-27T05:04:12.937Z,100412.50
2023-04-27T05:06:40.787Z,100404.59
2023-04-27T05:09:09.860Z,100412.94
2023-04-27T05:11:37.789Z,100407.75
2023-04-27T05:14:05.498Z,100406.25
2023-04-27T05:16:33.135Z,100410.63
2023-04-27T05:19:00.751Z,100408.19
2023-04-27T05:21:28.362Z,100404.66
2023-04-27T05:23:56.030Z,100407.03
2023-04-27T05:26:25.265Z,100413.22
2023-04-27T05:28:52.901Z,100415.59
2023-04-27T05:31:20.522Z,100409.66
2023-04-27T05:33:48.204Z,100403.59
2023-04-27T05:36:15.977Z,100418.06
2023-04-27T05:38:43.548Z,100407.97
2023-04-27T05:41:11.426Z,100413.44
2023-04-27T05:43:40.429Z,100401.38
2023-04-27T05:46:08.542Z,100401.69
2023-04-27T05:48:36.342Z,100398.13
2023-04-27T05:51:05.741Z,100396.38
2023-04-27T05:53:34.254Z,100389.97
2023-04-27T05:56:04.284Z,100398.09
2023-04-27T05:58:31.897Z,100401.28
2023-04-27T06:01:01.778Z,100390.75
2023-04-27T06:03:30.297Z,100400.66
2023-04-27T06:05:59.389Z,100390.69
2023-04-27T06:08:27.328Z,100393.88
2023-04-27T06:10:55.740Z,100394.69
2023-04-27T06:13:24.006Z,100391.78
2023-04-27T06:15:51.692Z,100383.34
2023-04-27T06:18:20.700Z,100394.91
2023-04-27T06:20:48.328Z,100385.66
2023-04-27T06:23:15.910Z,100387.66
2023-04-27T06:25:43.944Z,100390.44
2023-04-27T06:28:11.765Z,100389.00
2023-04-27T06:30:39.840Z,100394.44
2023-04-27T06:33:07.621Z,100387.03
2023-04-27T06:35:36.650Z,100382.25
2023-04-27T06:38:06.682Z,100390.00
2023-04-27T06:40:35.483Z,100379.19
2023-04-27T06:43:03.103Z,100390.44
2023-04-27T06:45:30.820Z,100404.34
2023-04-27T06:47:58.457Z,100389.78
2023-04-27T06:50:26.192Z,100383.88
2023-04-27T06:52:55.108Z,100389.06
2023-04-27T06:55:23.480Z,100390.25
2023-04-27T06:57:51.302Z,100396.50
2023-04-27T07:00:20.824Z,100381.06
2023-04-27T07:02:49.446Z,100387.75
2023-04-27T07:05:17.168Z,100377.56
2023-04-27T07:07:44.722Z,100403.41
2023-04-27T07:10:13.625Z,100406.91
2023-04-27T07:12:41.664Z,100404.56
2023-04-27T07:15:10.157Z,100392.03
2023-04-27T07:17:38.015Z,100389.97
2023-04-27T07:20:07.073Z,100384.31
2023-04-27T07:22:35.142Z,100389.63
2023-04-27T07:25:03.854Z,100384.22
2023-04-27T07:27:32.954Z,100381.22
2023-04-27T07:30:00.494Z,100389.38
2023-04-27T07:32:28.199Z,100386.59
2023-04-27T07:34:56.722Z,100382.66
2023-04-27T07:37:24.856Z,100380.78
2023-04-27T07:39:53.092Z,100388.97
2023-04-27T07:42:22.161Z,100375.31
2023-04-27T07:44:51.218Z,100380.44
2023-04-27T07:47:19.604Z,100372.69
2023-04-27T07:49:47.394Z,100376.22
2023-04-27T07:52:15.060Z,100372.88
2023-04-27T07:54:43.247Z,100390.41
2023-04-27T07:57:11.964Z,100365.84
2023-04-27T07:59:40.778Z,100377.38
2023-04-27T08:02:18.995Z,100379.44
2023-04-27T08:04:48.169Z,100380.88
2023-04-27T08:07:16.328Z,100358.84
2023-04-27T08:09:43.950Z,100367.66
2023-04-27T08:12:11.712Z,100383.66
2023-04-27T08:14:39.342Z,100379.72
2023-04-27T08:17:07.002Z,100370.00
2023-04-27T08:19:36.015Z,100386.88
2023-04-27T08:22:04.015Z,100379.38
2023-04-27T08:24:31.685Z,100369.63
2023-04-27T08:26:59.300Z,100377.34
2023-04-27T08:29:28.790Z,100376.53
2023-04-27T08:32:00.129Z,100371.78
2023-04-27T08:34:28.252Z,100379.31
2023-04-27T08:37:00.283Z,100368.63
2023-04-27T08:39:28.725Z,100363.75
2023-04-27T08:41:56.379Z,100363.59
2023-04-27T08:44:25.001Z,100363.66
2023-04-27T08:46:52.809Z,100360.97
2023-04-27T08:49:21.038Z,100363.22
2023-04-27T08:51:48.897Z,100374.97
2023-04-27T08:54:18.262Z,100366.97
2023-04-27T08:56:46.136Z,100370.16
2023-04-27T08:59:17.733Z,100360.94
2023-04-27T09:01:46.902Z,100358.34
2023-04-27T09:04:15.253Z,100364.22
2023-04-27T09:06:43.126Z,100360.56
2023-04-27T09:09:11.194Z,100363.88
2023-04-27T09:11:40.705Z,100369.66
2023-04-27T09:14:18.251Z,100365.59
2023-04-27T09:16:45.997Z,100370.22
2023-04-27T09:19:13.829Z,100362.16
2023-04-27T09:21:43.076Z,100370.25
2023-04-27T09:24:12.532Z,100367.88
2023-04-27T09:26:51.572Z,100367.41
2023-04-27T09:29:19.130Z,100354.41
2023-04-27T09:31:48.930Z,100362.22
2023-04-27T09:34:16.889Z,100363.94
2023-04-27T09:36:45.042Z,100368.38
2023-04-27T09:39:13.214Z,100363.34
2023-04-27T09:41:45.124Z,100368.56
2023-04-27T09:44:13.607Z,100361.19
2023-04-27T09:46:45.253Z,100359.31
2023-04-27T09:49:14.870Z,100353.16
2023-04-27T09:51:42.653Z,100353.50
2023-04-27T09:54:12.258Z,100343.28
2023-04-27T09:56:52.782Z,100353.50
2023-04-27T09:59:37.288Z,100349.19
2023-04-27T10:02:20.909Z,100343.44
2023-04-27T10:05:20.863Z,100339.31
2023-04-27T10:07:49.232Z,100335.13
2023-04-27T10:10:18.410Z,100324.41
2023-04-27T10:12:57.652Z,100326.16
2023-04-27T10:15:29.757Z,100332.56
2023-04-27T10:17:59.163Z,100324.06
2023-04-27T10:20:31.780Z,100332.41
2023-04-27T10:23:00.219Z,100330.50
2023-04-27T10:25:31.615Z,100327.81
2023-04-27T10:28:02.561Z,100331.38
2023-04-27T10:30:33.349Z,100327.66
2023-04-27T10:33:06.328Z,100326.19
2023-04-27T10:35:35.236Z,100322.34
2023-04-27T10:38:07.886Z,100325.34
2023-04-27T10:40:36.712Z,100323.13
2023-04-27T10:43:13.458Z,100314.16
2023-04-27T10:45:41.455Z,100310.91
2023-04-27T10:48:09.366Z,100319.56
2023-04-27T10:50:37.005Z,100321.06
2023-04-27T10:53:06.523Z,100319.88
2023-04-27T10:55:35.697Z,100319.13
2023-04-27T10:58:04.695Z,100312.31
2023-04-27T11:00:37.326Z,100313.94
2023-04-27T11:03:14.834Z,100292.22
2023-04-27T11:05:44.572Z,100293.69
2023-04-27T11:08:13.962Z,100295.59
2023-04-27T11:10:44.901Z,100293.91
2023-04-27T11:13:14.904Z,100287.53
2023-04-27T11:15:48.973Z,100284.72
2023-04-27T11:18:17.833Z,100279.19
2023-04-27T11:20:47.898Z,100278.59
2023-04-27T11:23:26.201Z,100284.03
2023-04-27T11:25:55.263Z,100270.66
2023-04-27T11:28:23.710Z,100269.50
2023-04-27T11:31:01.685Z,100271.03
2023-04-27T11:33:29.591Z,100270.41
2023-04-27T11:35:58.224Z,100266.34
2023-04-27T11:38:28.095Z,100275.34
2023-04-27T11:41:04.682Z,100270.53
2023-04-27T11:43:32.721Z,100271.75
2023-04-27T11:46:06.939Z,100256.16
2023-04-27T11:48:37.439Z,100261.25
2023-04-27T11:51:05.798Z,100250.31
2023-04-27T11:53:35.174Z,100243.50
2023-04-27T11:56:05.237Z,100237.78
2023-04-27T11:58:34.823Z,100242.81
2023-04-27T12:01:04.321Z,100236.59
2023-04-27T12:03:33.098Z,100232.63
2023-04-27T12:06:16.171Z,100232.88
2023-04-27T12:08:48.458Z,100235.75
2023-04-27T12:11:16.221Z,100220.47
2023-04-27T12:13:43.816Z,100216.16
2023-04-27T12:16:13.573Z,100215.72
2023-04-27T12:18:41.354Z,100219.38
2023-04-27T12:21:10.222Z,100221.47
2023-04-27T12:23:38.278Z,100220.06
2023-04-27T12:26:07.498Z,100228.69
2023-04-27T12:28:35.404Z,100217.09
2023-04-27T12:31:04.862Z,100216.34
2023-04-27T12:33:33.835Z,100214.06
2023-04-27T12:36:01.662Z,100211.66
2023-04-27T12:38:29.266Z,100213.13
2023-04-27T12:40:56.971Z,100214.00
2023-04-27T12:43:24.610Z,100208.47
2023-04-27T12:45:52.390Z,100201.50
2023-04-27T12:48:20.196Z,100200.84
2023-04-27T12:50:49.140Z,100208.53
2023-04-27T12:53:17.182Z,100199.66
2023-04-27T12:55:44.931Z,100200.00
2023-04-27T12:58:12.525Z,100198.44
2023-04-27T13:00:40.216Z,100190.16
2023-04-27T13:03:07.974Z,100191.81
2023-04-27T13:05:36.552Z,100179.31
2023-04-27T13:08:06.642Z,100182.31
2023-04-27T13:10:34.259Z,100178.38
2023-04-27T13:13:04.039Z,100187.13
2023-04-27T13:15:31.643Z,100187.44
2023-04-27T13:17:59.430Z,100182.00
2023-04-27T13:20:27.166Z,100182.09
2023-04-27T13:22:55.016Z,100171.41
2023-04-27T13:25:24.526Z,100174.84
2023-04-27T13:27:52.369Z,100176.44
2023-04-27T13:30:20.197Z,100179.25
2023-04-27T13:32:47.873Z,100174.22
2023-04-27T13:35:15.768Z,100170.38
2023-04-27T13:37:43.460Z,100170.44
2023-04-27T13:40:12.480Z,100174.31
2023-04-27T13:42:41.680Z,100169.66
2023-04-27T13:45:10.342Z,100171.78
2023-04-27T13:47:38.049Z,100175.78
2023-04-27T13:50:07.334Z,100164.69
2023-04-27T13:52:36.119Z,100173.44
2023-04-27T13:55:04.155Z,100167.31
2023-04-27T13:57:31.807Z,100169.78
2023-04-27T14:00:01.361Z,100172.59
2023-04-27T14:02:30.015Z,100173.72
2023-04-27T14:04:57.853Z,100170.00
2023-04-27T14:07:25.556Z,100181.50
2023-04-27T14:09:55.389Z,100174.50
2023-04-27T14:12:23.041Z,100179.34
2023-04-27T14:14:50.718Z,100172.94
2023-04-27T14:17:20.795Z,100176.06
2023-04-27T14:19:50.517Z,100179.44
2023-04-27T14:22:18.188Z,100169.88
2023-04-27T14:24:46.575Z,100176.31
2023-04-27T14:27:14.415Z,100173.19
2023-04-27T14:29:42.034Z,100159.19
2023-04-27T14:32:09.737Z,100164.72
2023-04-27T14:34:38.669Z,100166.06
2023-04-27T14:37:06.794Z,100157.56
2023-04-27T14:39:34.835Z,100160.28
2023-04-27T14:42:04.025Z,100156.84
2023-04-27T14:44:32.112Z,100155.72
2023-04-27T14:46:59.786Z,100156.38
2023-04-27T14:49:27.542Z,100158.66
2023-04-27T14:51:59.366Z,100153.56
2023-04-27T14:54:26.900Z,100156.75
2023-04-27T14:56:55.561Z,100146.81
2023-04-27T14:59:24.081Z,100148.66
2023-04-27T15:01:51.751Z,100151.97
2023-04-27T15:04:19.676Z,100155.09
2023-04-27T15:06:47.994Z,100161.78
2023-04-27T15:09:16.987Z,100157.75
2023-04-27T15:11:44.645Z,100165.88
2023-04-27T15:14:12.475Z,100157.88
2023-04-27T15:16:40.240Z,100154.25
2023-04-27T15:19:08.414Z,100159.06
2023-04-27T15:21:36.196Z,100155.75
2023-04-27T15:24:04.873Z,100159.97
2023-04-27T15:26:33.904Z,100151.50
2023-04-27T15:29:03.769Z,100145.09
2023-04-27T15:31:31.618Z,100140.13
2023-04-27T15:34:00.275Z,100139.69
2023-04-27T15:36:30.660Z,100140.25
2023-04-27T15:38:58.848Z,100138.41
2023-04-27T15:41:26.671Z,100129.84
2023-04-27T15:43:55.685Z,100124.72
2023-04-27T15:46:25.371Z,100109.16
2023-04-27T15:48:53.997Z,100105.41
2023-04-27T15:51:22.162Z,100105.66
2023-04-27T15:53:50.639Z,100107.47
2023-04-27T15:56:18.209Z,100110.00
2023-04-27T15:58:46.561Z,100104.97
2023-04-27T16:01:15.564Z,100108.59
2023-04-27T16:03:43.533Z,100093.09
2023-04-27T16:06:11.705Z,100101.94
2023-04-27T16:08:39.321Z,100090.47
2023-04-27T16:11:07.217Z,100080.69
2023-04-27T16:13:35.988Z,100077.00
2023-04-27T16:16:04.262Z,100083.28
2023-04-27T16:18:34.719Z,100085.63
2023-04-27T16:21:04.003Z,100081.50
2023-04-27T16:23:32.882Z,100078.84
2023-04-27T16:26:00.498Z,100083.00
2023-04-27T16:28:28.681Z,100087.13
2023-04-27T16:30:56.473Z,100089.66
2023-04-27T16:33:24.065Z,100098.22
2023-04-27T16:35:53.114Z,100087.16
2023-04-27T16:38:20.892Z,100086.69
2023-04-27T16:40:50.065Z,100078.28
2023-04-27T16:43:20.552Z,100079.00
2023-04-27T16:45:48.895Z,100081.50
2023-04-27T16:48:16.928Z,100076.47
2023-04-27T16:50:46.977Z,100068.63
2023-04-27T16:53:21.987Z,100079.75
2023-04-27T16:55:49.592Z,100085.19
2023-04-27T16:58:17.306Z,100084.34
2023-04-27T17:00:47.068Z,100075.91
2023-04-27T17:03:22.189Z,100086.34
2023-04-27T17:05:51.168Z,100086.47
2023-04-27T17:08:26.284Z,100089.19
2023-04-27T17:10:54.961Z,100083.25
2023-04-27T17:13:22.575Z,100096.59
2023-04-27T17:15:54.286Z,100090.81
2023-04-27T17:18:21.977Z,100096.13
2023-04-27T17:20:52.246Z,100083.41
2023-04-27T17:23:21.442Z,100086.56
2023-04-27T17:25:49.478Z,100090.34
2023-04-27T17:28:17.193Z,100088.84
2023-04-27T17:30:44.999Z,100079.28
2023-04-27T17:33:15.116Z,100080.00
2023-04-27T17:35:44.466Z,100082.38
2023-04-27T17:38:12.976Z,100073.44
2023-04-27T17:40:42.773Z,100069.91
2023-04-27T17:43:11.615Z,100075.81
2023-04-27T17:45:39.320Z,100074.81
2023-04-27T17:48:10.671Z,100072.59
2023-04-27T17:50:41.471Z,100081.88
2023-04-27T17:53:09.267Z,100080.69
2023-04-27T17:55:37.563Z,100079.38
2023-04-27T17:58:06.753Z,100086.78
2023-04-27T18:00:37.524Z,100078.22
2023-04-27T18:03:05.924Z,100088.31
2023-04-27T18:05:34.305Z,100086.09
2023-04-27T18:08:01.913Z,100094.19
2023-04-27T18:10:29.802Z,100094.28
2023-04-27T18:12:57.702Z,100097.47
2023-04-27T18:15:27.945Z,100088.84
2023-04-27T18:17:55.791Z,100092.16
2023-04-27T18:20:23.534Z,100086.38
2023-04-27T18:22:52.282Z,100085.66
2023-04-27T18:25:20.928Z,100077.81
2023-04-27T18:27:50.975Z,100085.41
2023-04-27T18:30:18.938Z,100080.94
2023-04-27T18:32:48.251Z,100084.38
2023-04-27T18:35:16.310Z,100083.16
2023-04-27T18:37:48.056Z,100088.44
2023-04-27T18:40:16.948Z,100079.22
2023-04-27T18:42:45.609Z,100076.81
2023-04-27T18:45:13.308Z,100072.69
2023-04-27T18:47:41.163Z,100074.78
2023-04-27T18:50:13.091Z,100076.22
2023-04-27T18:52:40.891Z,100080.19
2023-04-27T18:55:10.225Z,100091.06
2023-04-27T18:57:37.855Z,100092.03
2023-04-27T19:00:06.323Z,100096.25
2023-04-27T19:02:34.151Z,100103.59
2023-04-27T19:05:11.280Z,100106.94
2023-04-27T19:07:41.681Z,100103.97
2023-04-27T19:10:10.694Z,100105.50
2023-04-27T19:12:38.476Z,100112.66
2023-04-27T19:15:06.876Z,100107.53
2023-04-27T19:17:35.187Z,100104.97
2023-04-27T19:20:03.642Z,100108.00
2023-04-27T19:22:34.299Z,100107.16
2023-04-27T19:25:04.354Z,100115.66
2023-04-27T19:27:32.113Z,100113.06
2023-04-27T19:29:59.711Z,100110.03
2023-04-27T19:32:28.356Z,100115.44
2023-04-27T19:34:56.930Z,100111.59
2023-04-27T19:37:25.236Z,100108.16
2023-04-27T19:39:53.090Z,100104.47
2023-04-27T19:42:22.126Z,100104.88
2023-04-27T19:44:49.812Z,100104.97
2023-04-27T19:47:17.605Z,100109.03
2023-04-27T19:49:45.985Z,100106.97
2023-04-27T19:52:13.856Z,100108.78
2023-04-27T19:54:41.814Z,100105.31
2023-04-27T19:57:09.530Z,100103.44
2023-04-27T19:59:38.902Z,100105.22
2023-04-27T20:02:07.619Z,100104.25
2023-04-27T20:04:36.958Z,100098.16
2023-04-27T20:07:06.440Z,100099.81
2023-04-27T20:09:34.610Z,100089.47
2023-04-27T20:12:03.675Z,100101.91
2023-04-27T20:14:35.083Z,100096.56
2023-04-27T20:17:04.740Z,100096.66
2023-04-27T20:19:34.002Z,100099.56
2023-04-27T20:22:03.025Z,100111.53
2023-04-27T20:24:31.296Z,100106.91
2023-04-27T20:27:00.586Z,100098.88
2023-04-27T20:29:29.409Z,100104.75
2023-04-27T20:31:57.226Z,100103.22
2023-04-27T20:34:26.254Z,100098.03
2023-04-27T20:36:54.173Z,100091.97
2023-04-27T20:39:24.223Z,100092.34
2023-04-27T20:41:51.956Z,100088.06
2023-04-27T20:44:20.709Z,100083.78
2023-04-27T20:46:49.440Z,100083.41
2023-04-27T20:49:24.616Z,100091.34
2023-04-27T20:51:57.421Z,100088.28
2023-04-27T20:54:25.481Z,100080.94
2023-04-27T20:56:53.112Z,100069.94
2023-04-27T20:59:21.038Z,100075.97
2023-04-27T21:01:51.954Z,100080.09
2023-04-27T21:04:20.229Z,100081.31
2023-04-27T21:06:50.714Z,100093.34
2023-04-27T21:09:19.807Z,100085.28
2023-04-27T21:11:47.477Z,100087.97
2023-04-27T21:14:15.654Z,100090.31
2023-04-27T21:16:43.502Z,100096.97
2023-04-27T21:19:12.954Z,100086.25
2023-04-27T21:21:40.974Z,100081.72
2023-04-27T21:24:08.820Z,100086.78
2023-04-27T21:26:37.797Z,100078.47
2023-04-27T21:29:08.087Z,100076.84
2023-04-27T21:31:37.418Z,100080.50
2023-04-27T21:34:07.388Z,100074.31
2023-04-27T21:36:34.985Z,100071.84
2023-04-27T21:39:02.570Z,100070.19
2023-04-27T21:41:30.331Z,100070.25
2023-04-27T21:43:59.289Z,100068.97
2023-04-27T21:46:26.971Z,100069.41
2023-04-27T21:48:54.553Z,100065.94
2023-04-27T21:51:22.180Z,100070.84
2023-04-27T21:53:49.755Z,100068.16
2023-04-27T21:56:17.335Z,100063.81
2023-04-27T21:58:45.860Z,100062.34
2023-04-27T22:01:15.052Z,100067.06
2023-04-27T22:03:42.768Z,100064.75
2023-04-27T22:06:11.787Z,100062.25
2023-04-27T22:08:39.405Z,100065.38
2023-04-27T22:11:07.845Z,100074.31
2023-04-27T22:13:36.641Z,100069.56
2023-04-27T22:16:04.340Z,100067.88
2023-04-27T22:18:33.366Z,100067.94
2023-04-27T22:21:01.261Z,100060.53
2023-04-27T22:23:30.481Z,100061.78
2023-04-27T22:25:58.403Z,100058.69
2023-04-27T22:28:26.302Z,100055.38
2023-04-27T22:30:54.194Z,100052.22
2023-04-27T22:33:22.057Z,100043.91
2023-04-27T22:35:51.203Z,100038.94
2023-04-27T22:38:18.842Z,100027.59
2023-04-27T22:40:46.738Z,100037.16
2023-04-27T22:43:14.571Z,100035.72
2023-04-27T22:45:42.285Z,100036.97
2023-04-27T22:48:09.950Z,100044.00
2023-04-27T22:50:37.614Z,100041.47
2023-04-27T22:53:06.561Z,100038.63
2023-04-27T22:55:34.197Z,100031.22
2023-04-27T22:58:01.884Z,100043.22
2023-04-27T23:00:29.900Z,100043.66
2023-04-27T23:02:57.689Z,100039.53
2023-04-27T23:05:25.773Z,100034.72
2023-04-27T23:07:53.383Z,100025.34
2023-04-27T23:10:22.579Z,100031.16
2023-04-27T23:12:54.876Z,100032.41
2023-04-27T23:15:23.843Z,100026.66
2023-04-27T23:17:51.417Z,100012.81
2023-04-27T23:20:28.077Z,100022.53
2023-04-27T23:22:56.789Z,100011.97
2023-04-27T23:25:26.227Z,100010.38
2023-04-27T23:27:54.002Z,100016.31
2023-04-27T23:30:22.230Z,100013.63
2023-04-27T23:32:50.127Z,100022.69
2023-04-27T23:35:19.083Z,100017.75
2023-04-27T23:37:46.782Z,100016.09
2023-04-27T23:40:14.585Z,100021.31
2023-04-27T23:42:43.519Z,100007.44
2023-04-27T23:45:12.127Z,100002.47
2023-04-27T23:47:40.057Z,100000.41
2023-04-27T23:50:08.520Z,100000.66
2023-04-27T23:52:36.290Z,99992.97
2023-04-27T23:55:03.946Z,99997.91
2023-04-27T23:57:31.721Z,99999.56
